createdAt,value
2017-09-23T00:00:54.823Z,10.50
2017-09-23T00:03:22.256Z,10.10
2017-09-23T00:05:50.465Z,9.90
2017-09-23T00:08:17.893Z,10.47
2017-09-23T00:10:45.324Z,10.30
2017-09-23T00:13:12.767Z,9.87
2017-09-23T00:15:40.201Z,10.00
2017-09-23T00:18:08.404Z,9.23
2017-09-23T00:20:35.836Z,10.60
2017-09-23T00:23:03.278Z,10.80
2017-09-23T00:25:30.722Z,10.03
2017-09-23T00:27:58.141Z,8.33
2017-09-23T00:30:26.340Z,8.73
2017-09-23T00:32:53.799Z,8.20
2017-09-23T00:35:21.224Z,8.50
2017-09-23T00:37:48.657Z,8.00
2017-09-23T00:40:16.089Z,8.40
2017-09-23T00:42:43.516Z,8.93
2017-09-23T00:45:11.722Z,8.60
2017-09-23T00:47:39.161Z,8.80
2017-09-23T00:50:06.583Z,8.10
2017-09-23T00:52:34.019Z,9.00
2017-09-23T00:55:01.456Z,9.83
2017-09-23T00:57:28.880Z,9.47
2017-09-23T00:59:56.314Z,10.13
2017-09-23T01:02:23.740Z,9.43
2017-09-23T01:04:51.174Z,9.30
2017-09-23T01:07:18.637Z,11.30
2017-09-23T01:09:46.070Z,10.10
2017-09-23T01:12:13.500Z,13.43
2017-09-23T01:14:40.937Z,10.93
2017-09-23T01:17:08.373Z,10.93
2017-09-23T01:19:35.818Z,10.23
2017-09-23T01:22:03.252Z,10.67
2017-09-23T01:24:30.687Z,10.27
2017-09-23T01:26:58.884Z,11.10
2017-09-23T01:29:26.329Z,11.50
2017-09-23T01:31:54.548Z,11.37
2017-09-23T01:34:21.973Z,12.27
2017-09-23T01:36:49.400Z,12.17
2017-09-23T01:39:16.832Z,12.70
2017-09-23T01:41:44.268Z,11.50
2017-09-23T01:44:11.713Z,11.27
2017-09-23T01:46:39.144Z,11.07
2017-09-23T01:49:07.352Z,11.20
2017-09-23T01:51:34.776Z,9.03
2017-09-23T01:54:02.979Z,9.50
2017-09-23T01:56:31.413Z,9.70
2017-09-23T01:58:58.851Z,8.67
2017-09-23T02:01:26.280Z,8.47
2017-09-23T02:03:53.714Z,8.57
2017-09-23T02:06:21.913Z,9.00
2017-09-23T02:08:49.344Z,8.40
2017-09-23T02:11:16.776Z,8.60
2017-09-23T02:13:44.982Z,9.30
2017-09-23T02:16:12.410Z,8.97
2017-09-23T02:18:40.608Z,8.80
2017-09-23T02:21:08.040Z,9.60
2017-09-23T02:23:36.237Z,8.80
2017-09-23T02:26:03.677Z,11.57
2017-09-23T02:28:31.868Z,8.80
2017-09-23T02:30:59.305Z,9.13
2017-09-23T02:33:27.506Z,7.83
2017-09-23T02:35:54.939Z,9.37
2017-09-23T02:38:23.129Z,8.57
2017-09-23T02:40:50.575Z,8.07
2017-09-23T02:43:18.756Z,6.80
2017-09-23T02:45:46.194Z,7.83
2017-09-23T02:48:14.392Z,8.37
2017-09-23T02:50:41.829Z,9.90
2017-09-23T02:53:10.033Z,8.20
2017-09-23T02:55:37.462Z,8.73
2017-09-23T02:58:05.661Z,9.40
2017-09-23T03:00:33.101Z,9.00
2017-09-23T03:03:00.532Z,8.30
2017-09-23T03:05:27.973Z,8.83
2017-09-23T03:07:55.408Z,9.90
2017-09-23T03:10:22.860Z,10.63
2017-09-23T03:12:50.285Z,9.97
2017-09-23T03:15:18.488Z,9.50
2017-09-23T03:17:45.953Z,9.83
2017-09-23T03:20:14.128Z,9.20
2017-09-23T03:22:41.561Z,10.43
2017-09-23T03:25:08.992Z,10.27
2017-09-23T03:27:37.196Z,8.83
2017-09-23T03:30:04.630Z,11.20
2017-09-23T03:32:32.824Z,9.37
2017-09-23T03:35:00.259Z,10.97
2017-09-23T03:37:28.470Z,12.97
2017-09-23T03:39:55.895Z,9.40
2017-09-23T03:42:24.103Z,9.17
2017-09-23T03:44:51.535Z,9.60
2017-09-23T03:47:19.740Z,10.10
2017-09-23T03:49:47.160Z,10.30
2017-09-23T03:52:15.371Z,10.87
2017-09-23T03:54:42.796Z,9.33
2017-09-23T03:57:10.996Z,9.67
2017-09-23T03:59:38.424Z,9.53
2017-09-23T04:02:05.869Z,10.17
2017-09-23T04:04:34.065Z,9.20
2017-09-23T04:07:01.496Z,8.53
2017-09-23T04:09:29.693Z,9.67
2017-09-23T04:11:57.129Z,9.97
2017-09-23T04:14:25.329Z,9.27
2017-09-23T04:16:52.774Z,9.27
2017-09-23T04:19:20.967Z,8.63
2017-09-23T04:21:48.392Z,8.83
2017-09-23T04:24:16.596Z,8.70
2017-09-23T04:26:44.020Z,8.63
2017-09-23T04:29:12.225Z,8.73
2017-09-23T04:31:39.655Z,8.07
2017-09-23T04:34:07.856Z,7.70
2017-09-23T04:36:35.296Z,7.50
2017-09-23T04:39:03.484Z,9.13
2017-09-23T04:41:30.931Z,8.03
2017-09-23T04:43:59.134Z,9.70
2017-09-23T04:46:26.572Z,9.70
2017-09-23T04:48:54.100Z,9.57
2017-09-23T04:51:21.525Z,10.30
2017-09-23T04:53:48.967Z,10.30
2017-09-23T04:56:16.399Z,8.43
2017-09-23T04:58:43.848Z,10.00
2017-09-23T05:01:12.048Z,9.00
2017-09-23T05:03:39.484Z,9.07
2017-09-23T05:06:06.914Z,7.97
2017-09-23T05:08:34.352Z,9.13
2017-09-23T05:11:01.804Z,8.40
2017-09-23T05:13:29.294Z,8.70
2017-09-23T05:15:59.520Z,9.80
2017-09-23T05:18:27.748Z,9.60
2017-09-23T05:21:04.270Z,8.50
2017-09-23T05:23:32.840Z,9.60
2017-09-23T05:26:00.497Z,9.17
2017-09-23T05:28:27.967Z,9.17
2017-09-23T05:30:55.398Z,7.87
2017-09-23T05:33:22.819Z,9.50
2017-09-23T05:35:50.361Z,9.57
2017-09-23T05:38:17.784Z,8.83
2017-09-23T05:40:45.249Z,11.80
2017-09-23T05:43:13.450Z,8.03
2017-09-23T05:45:40.907Z,8.13
2017-09-23T05:48:08.377Z,8.73
2017-09-23T05:50:35.826Z,10.37
2017-09-23T05:53:03.257Z,11.20
2017-09-23T05:55:31.466Z,10.70
2017-09-23T05:57:58.890Z,10.97
2017-09-23T06:00:27.095Z,9.90
2017-09-23T06:02:54.515Z,9.10
2017-09-23T06:05:25.764Z,11.30
2017-09-23T06:07:53.965Z,10.20
2017-09-23T06:10:21.405Z,9.67
2017-09-23T06:12:49.591Z,9.33
2017-09-23T06:15:17.025Z,9.63
2017-09-23T06:17:45.220Z,9.60
2017-09-23T06:20:12.658Z,10.70
2017-09-23T06:22:40.856Z,12.23
2017-09-23T06:25:10.349Z,9.57
2017-09-23T06:27:38.573Z,11.10
2017-09-23T06:30:06.011Z,11.70
2017-09-23T06:32:33.456Z,11.87
2017-09-23T06:35:00.884Z,10.47
2017-09-23T06:37:29.133Z,12.53
2017-09-23T06:39:56.554Z,10.77
2017-09-23T06:42:24.012Z,11.60
2017-09-23T06:44:51.437Z,11.63
2017-09-23T06:47:19.645Z,12.00
2017-09-23T06:49:47.078Z,12.40
2017-09-23T06:52:14.527Z,12.10
2017-09-23T06:54:43.710Z,11.33
2017-09-23T06:57:11.913Z,13.37
2017-09-23T06:59:39.349Z,12.93
2017-09-23T07:02:07.561Z,12.87
2017-09-23T07:04:35.005Z,13.17
2017-09-23T07:07:02.444Z,11.53
2017-09-23T07:09:30.632Z,13.40
2017-09-23T07:11:58.073Z,15.57
2017-09-23T07:14:26.300Z,14.47
2017-09-23T07:16:53.710Z,15.63
2017-09-23T07:19:21.149Z,18.53
2017-09-23T07:21:49.369Z,16.70
2017-09-23T07:24:16.796Z,13.53
2017-09-23T07:26:45.004Z,19.37
2017-09-23T07:29:12.451Z,19.97
2017-09-23T07:31:39.901Z,19.30
2017-09-23T07:34:07.333Z,20.27
2017-09-23T07:36:35.527Z,21.33
2017-09-23T07:39:02.964Z,21.60
2017-09-23T07:41:31.172Z,23.27
2017-09-23T07:43:58.634Z,24.60
2017-09-23T07:46:26.066Z,22.77
2017-09-23T07:48:54.268Z,25.17
2017-09-23T07:51:21.708Z,26.47
2017-09-23T07:53:49.155Z,17.10
2017-09-23T07:56:17.336Z,17.67
2017-09-23T07:58:44.793Z,20.73
2017-09-23T08:01:12.225Z,22.23
2017-09-23T08:03:40.443Z,22.50
2017-09-23T08:06:07.868Z,21.67
2017-09-23T08:08:36.076Z,21.90
2017-09-23T08:11:03.509Z,20.73
2017-09-23T08:13:30.976Z,21.30
2017-09-23T08:15:58.417Z,20.10
2017-09-23T08:18:25.883Z,20.87
2017-09-23T08:20:53.320Z,21.23
2017-09-23T08:23:21.533Z,20.50
2017-09-23T08:25:48.969Z,20.50
2017-09-23T08:28:16.488Z,20.63
2017-09-23T08:30:43.925Z,20.10
2017-09-23T08:33:11.376Z,18.70
2017-09-23T08:35:38.827Z,20.20
2017-09-23T08:38:06.257Z,20.33
2017-09-23T08:40:33.697Z,19.33
2017-09-23T08:43:01.891Z,19.50
2017-09-23T08:45:29.341Z,20.37
2017-09-23T08:47:56.776Z,21.10
2017-09-23T08:50:24.975Z,20.57
2017-09-23T08:52:52.410Z,20.10
2017-09-23T08:55:20.626Z,21.83
2017-09-23T08:57:48.056Z,22.70
2017-09-23T09:00:15.501Z,21.03
2017-09-23T09:02:43.847Z,19.50
2017-09-23T09:05:11.276Z,21.73
2017-09-23T09:07:38.741Z,20.03
2017-09-23T09:10:06.236Z,20.90
2017-09-23T09:12:33.664Z,20.10
2017-09-23T09:15:01.117Z,20.00
2017-09-23T09:17:28.553Z,19.47
2017-09-23T09:19:56.150Z,18.97
2017-09-23T09:22:23.584Z,19.37
2017-09-23T09:24:51.078Z,18.87
2017-09-23T09:27:18.508Z,21.13
2017-09-23T09:29:45.948Z,20.10
2017-09-23T09:32:13.386Z,20.07
2017-09-23T09:34:40.844Z,19.87
2017-09-23T09:37:08.272Z,19.27
2017-09-23T09:39:35.710Z,19.30
2017-09-23T09:42:03.144Z,18.87
2017-09-23T09:44:30.617Z,20.23
2017-09-23T09:46:58.053Z,17.70
2017-09-23T09:49:25.497Z,20.37
2017-09-23T09:51:52.924Z,21.03
2017-09-23T09:54:21.120Z,19.90
2017-09-23T09:56:48.562Z,19.30
2017-09-23T09:59:16.842Z,17.17
2017-09-23T10:01:45.042Z,19.60
2017-09-23T10:04:13.485Z,15.83
2017-09-23T10:06:41.770Z,18.70
2017-09-23T10:09:09.966Z,21.47
2017-09-23T10:11:38.418Z,19.00
2017-09-23T10:14:06.626Z,19.03
2017-09-23T10:16:34.065Z,19.53
2017-09-23T10:19:01.488Z,20.43
2017-09-23T10:21:28.933Z,18.73
2017-09-23T10:23:56.416Z,18.70
2017-09-23T10:26:24.621Z,20.60
2017-09-23T10:28:52.050Z,21.40
2017-09-23T10:31:20.261Z,19.67
2017-09-23T10:33:47.702Z,19.23
2017-09-23T10:36:15.157Z,23.27
2017-09-23T10:38:42.592Z,17.27
2017-09-23T10:41:10.867Z,20.03
2017-09-23T10:43:39.064Z,20.10
2017-09-23T10:46:06.505Z,17.37
2017-09-23T10:48:34.717Z,19.43
2017-09-23T10:51:02.162Z,19.33
2017-09-23T10:53:29.593Z,18.40
2017-09-23T10:55:57.806Z,18.93
2017-09-23T10:58:25.315Z,17.33
2017-09-23T11:00:53.525Z,18.90
2017-09-23T11:03:20.968Z,18.00
2017-09-23T11:05:48.413Z,16.77
2017-09-23T11:08:16.632Z,17.50
2017-09-23T11:10:44.078Z,13.47
2017-09-23T11:13:11.514Z,16.63
2017-09-23T11:15:38.948Z,16.50
2017-09-23T11:18:06.396Z,15.77
2017-09-23T11:20:33.861Z,16.27
2017-09-23T11:23:01.313Z,17.37
2017-09-23T11:25:28.739Z,16.50
2017-09-23T11:27:56.958Z,17.40
2017-09-23T11:30:24.395Z,19.50
2017-09-23T11:32:51.840Z,16.27
2017-09-23T11:35:19.278Z,15.77
2017-09-23T11:37:46.737Z,18.93
2017-09-23T11:40:14.168Z,15.53
2017-09-23T11:42:41.605Z,13.53
2017-09-23T11:45:10.799Z,14.67
2017-09-23T11:47:38.996Z,14.70
2017-09-23T11:50:06.448Z,18.17
2017-09-23T11:52:34.645Z,15.10
2017-09-23T11:55:02.087Z,14.07
2017-09-23T11:57:29.517Z,16.30
2017-09-23T11:59:57.733Z,13.27
2017-09-23T12:02:25.176Z,15.30
2017-09-23T12:04:52.605Z,15.67
2017-09-23T12:07:20.809Z,15.60
2017-09-23T12:09:48.289Z,14.63
2017-09-23T12:12:15.716Z,13.90
2017-09-23T12:14:43.164Z,15.70
2017-09-23T12:17:10.613Z,12.60
2017-09-23T12:19:38.847Z,15.30
2017-09-23T12:22:06.288Z,12.13
2017-09-23T12:24:33.798Z,13.87
2017-09-23T12:27:01.998Z,13.43
2017-09-23T12:29:29.433Z,13.90
2017-09-23T12:31:57.633Z,12.40
2017-09-23T12:34:25.093Z,12.27
2017-09-23T12:36:52.509Z,14.63
2017-09-23T12:39:19.941Z,14.73
2017-09-23T12:41:47.387Z,15.00
2017-09-23T12:44:14.829Z,14.03
2017-09-23T12:46:42.267Z,13.57
2017-09-23T12:49:09.704Z,13.20
2017-09-23T12:51:37.904Z,15.40
2017-09-23T12:54:05.347Z,16.03
2017-09-23T12:56:33.608Z,15.57
2017-09-23T12:59:01.812Z,15.47
2017-09-23T13:01:29.305Z,17.10
2017-09-23T13:03:56.753Z,16.70
2017-09-23T13:06:24.181Z,16.90
2017-09-23T13:08:51.613Z,17.43
2017-09-23T13:11:19.889Z,14.77
2017-09-23T13:13:48.100Z,16.37
2017-09-23T13:16:15.539Z,14.37
2017-09-23T13:18:42.976Z,15.23
2017-09-23T13:21:10.413Z,13.67
2017-09-23T13:23:37.849Z,14.77
2017-09-23T13:26:05.306Z,13.97
2017-09-23T13:28:32.747Z,13.20
2017-09-23T13:31:00.217Z,14.67
2017-09-23T13:33:27.644Z,15.03
2017-09-23T13:35:55.096Z,14.07
2017-09-23T13:38:22.524Z,12.03
2017-09-23T13:40:49.948Z,16.43
2017-09-23T13:43:17.397Z,14.40
2017-09-23T13:45:44.839Z,14.80
2017-09-23T13:48:12.281Z,13.83
2017-09-23T13:50:39.713Z,17.63
2017-09-23T13:53:07.150Z,15.80
2017-09-23T13:55:34.589Z,15.77
2017-09-23T13:58:02.022Z,15.13
2017-09-23T14:00:29.461Z,13.00
2017-09-23T14:02:56.929Z,16.03
2017-09-23T14:05:25.375Z,13.63
2017-09-23T14:07:53.591Z,14.40
2017-09-23T14:10:21.037Z,11.77
2017-09-23T14:12:49.236Z,15.00
2017-09-23T14:15:17.485Z,12.97
2017-09-23T14:17:44.927Z,12.93
2017-09-23T14:20:13.131Z,13.57
2017-09-23T14:22:40.569Z,13.60
2017-09-23T14:25:08.009Z,14.20
2017-09-23T14:27:36.390Z,16.53
2017-09-23T14:30:04.603Z,15.40
2017-09-23T14:32:32.046Z,14.07
2017-09-23T14:34:59.478Z,16.10
2017-09-23T14:37:27.769Z,14.57
2017-09-23T14:39:55.206Z,14.93
2017-09-23T14:42:23.409Z,12.27
2017-09-23T14:44:50.884Z,12.37
2017-09-23T14:47:18.411Z,13.53
2017-09-23T14:49:46.616Z,11.40
2017-09-23T14:52:14.048Z,11.80
2017-09-23T14:54:41.490Z,15.33
2017-09-23T14:57:11.704Z,12.23
2017-09-23T14:59:39.226Z,11.70
2017-09-23T15:02:06.668Z,11.20
2017-09-23T15:04:34.106Z,11.70
2017-09-23T15:07:01.533Z,11.70
2017-09-23T15:09:28.975Z,13.60
2017-09-23T15:11:56.406Z,12.20
2017-09-23T15:14:23.968Z,10.73
2017-09-23T15:16:51.633Z,11.20
2017-09-23T15:19:19.082Z,11.07
2017-09-23T15:21:46.568Z,11.20
2017-09-23T15:24:14.006Z,10.20
2017-09-23T15:26:41.458Z,14.17
2017-09-23T15:29:09.017Z,11.33
2017-09-23T15:31:36.455Z,10.83
2017-09-23T15:34:04.008Z,8.93
2017-09-23T15:36:31.436Z,10.00
2017-09-23T15:38:59.652Z,10.07
2017-09-23T15:41:27.088Z,11.40
2017-09-23T15:43:54.540Z,9.63
2017-09-23T15:46:21.976Z,9.70
2017-09-23T15:48:50.168Z,9.83
2017-09-23T15:51:18.371Z,9.93
2017-09-23T15:53:45.804Z,10.40
2017-09-23T15:56:13.243Z,10.27
2017-09-23T15:58:41.449Z,10.10
2017-09-23T16:01:14.620Z,9.23
2017-09-23T16:03:43.824Z,9.50
2017-09-23T16:06:13.402Z,10.60
2017-09-23T16:08:40.832Z,9.90
2017-09-23T16:11:08.335Z,9.47
2017-09-23T16:13:35.786Z,10.23
2017-09-23T16:16:14.472Z,9.60
2017-09-23T16:18:41.921Z,11.27
2017-09-23T16:21:09.493Z,10.50
2017-09-23T16:23:36.997Z,10.10
2017-09-23T16:26:05.214Z,10.33
2017-09-23T16:28:32.636Z,8.60
2017-09-23T16:31:00.096Z,10.60
2017-09-23T16:33:27.535Z,10.90
2017-09-23T16:35:59.352Z,10.43
2017-09-23T16:38:30.085Z,9.60
2017-09-23T16:40:57.529Z,9.93
2017-09-23T16:43:24.960Z,9.70
2017-09-23T16:45:53.980Z,8.67
2017-09-23T16:48:22.513Z,9.10
2017-09-23T16:50:49.998Z,10.03
2017-09-23T16:53:17.441Z,10.70
2017-09-23T16:55:44.911Z,10.73
2017-09-23T16:58:12.344Z,10.73
2017-09-23T17:00:40.564Z,10.77
2017-09-23T17:03:08.017Z,10.80
2017-09-23T17:05:35.458Z,10.47
2017-09-23T17:08:02.907Z,11.40
2017-09-23T17:10:30.341Z,10.60
2017-09-23T17:12:58.559Z,11.03
2017-09-23T17:15:26.004Z,9.73
2017-09-23T17:17:53.424Z,9.63
2017-09-23T17:20:21.632Z,10.33
2017-09-23T17:22:51.212Z,11.57
2017-09-23T17:25:19.415Z,10.27
2017-09-23T17:27:46.860Z,10.00
2017-09-23T17:30:14.373Z,11.30
2017-09-23T17:32:41.814Z,9.80
2017-09-23T17:35:09.256Z,10.50
2017-09-23T17:37:36.695Z,11.40
2017-09-23T17:40:04.129Z,10.53
2017-09-23T17:42:32.339Z,12.00
2017-09-23T17:44:59.776Z,12.10
2017-09-23T17:47:27.216Z,11.43
2017-09-23T17:49:59.760Z,11.43
2017-09-23T17:52:27.213Z,11.90
2017-09-23T17:54:54.649Z,12.23
2017-09-23T17:57:22.093Z,13.13
2017-09-23T17:59:49.612Z,12.73
2017-09-23T18:02:17.047Z,12.17
2017-09-23T18:04:44.498Z,12.87
2017-09-23T18:07:11.941Z,11.67
2017-09-23T18:09:39.492Z,12.03
2017-09-23T18:12:06.940Z,11.90
2017-09-23T18:14:34.382Z,12.27
2017-09-23T18:17:01.832Z,13.43
2017-09-23T18:19:30.029Z,14.40
2017-09-23T18:21:57.475Z,12.67
2017-09-23T18:24:24.917Z,13.87
2017-09-23T18:26:53.303Z,14.27
2017-09-23T18:29:32.997Z,13.30
2017-09-23T18:32:00.445Z,13.70
2017-09-23T18:34:27.876Z,14.07
2017-09-23T18:36:55.316Z,15.27
2017-09-23T18:39:23.520Z,14.40
2017-09-23T18:41:50.984Z,14.10
2017-09-23T18:44:18.416Z,15.50
2017-09-23T18:46:45.930Z,14.63
2017-09-23T18:49:13.369Z,15.70
2017-09-23T18:51:40.849Z,15.57
2017-09-23T18:54:09.089Z,14.27
2017-09-23T18:56:36.534Z,16.80
2017-09-23T18:59:03.973Z,16.00
2017-09-23T19:01:31.424Z,14.53
2017-09-23T19:03:58.898Z,14.87
2017-09-23T19:06:26.337Z,14.87
2017-09-23T19:08:54.549Z,15.87
2017-09-23T19:11:22.022Z,16.90
2017-09-23T19:13:49.444Z,15.67
2017-09-23T19:16:18.816Z,15.93
2017-09-23T19:18:47.144Z,15.07
2017-09-23T19:21:14.802Z,17.00
2017-09-23T19:23:42.232Z,15.20
2017-09-23T19:26:09.682Z,17.20
2017-09-23T19:28:42.217Z,16.70
2017-09-23T19:31:09.660Z,18.10
2017-09-23T19:33:39.185Z,17.23
2017-09-23T19:36:10.228Z,18.20
2017-09-23T19:38:37.655Z,17.10
2017-09-23T19:41:05.085Z,20.13
2017-09-23T19:43:32.537Z,18.60
2017-09-23T19:45:59.972Z,17.10
2017-09-23T19:48:27.424Z,19.20
2017-09-23T19:50:54.861Z,17.80
2017-09-23T19:53:22.313Z,17.87
2017-09-23T19:55:49.753Z,17.60
2017-09-23T19:58:17.201Z,17.83
2017-09-23T20:00:44.641Z,19.37
2017-09-23T20:03:12.081Z,20.07
2017-09-23T20:05:40.292Z,18.50
2017-09-23T20:08:12.524Z,18.80
2017-09-23T20:10:39.974Z,19.80
2017-09-23T20:13:08.192Z,18.93
2017-09-23T20:15:38.992Z,19.27
2017-09-23T20:18:06.477Z,19.40
2017-09-23T20:20:33.870Z,18.50
2017-09-23T20:23:01.313Z,17.90
2017-09-23T20:25:28.761Z,18.80
2017-09-23T20:27:56.212Z,18.67
2017-09-23T20:30:25.684Z,18.83
2017-09-23T20:32:53.130Z,18.20
2017-09-23T20:35:21.345Z,18.70
2017-09-23T20:37:48.789Z,19.77
2017-09-23T20:40:16.225Z,19.00
2017-09-23T20:42:44.424Z,19.23
2017-09-23T20:45:11.871Z,19.23
2017-09-23T20:47:39.317Z,20.27
2017-09-23T20:50:07.526Z,18.23
2017-09-23T20:52:34.970Z,19.63
2017-09-23T20:55:02.410Z,19.60
2017-09-23T20:57:30.616Z,19.40
2017-09-23T20:59:58.104Z,20.40
2017-09-23T21:02:25.537Z,21.63
2017-09-23T21:04:52.989Z,20.57
2017-09-23T21:07:20.425Z,19.43
2017-09-23T21:09:47.868Z,21.20
2017-09-23T21:12:16.076Z,23.90
2017-09-23T21:14:43.525Z,21.27
2017-09-23T21:17:10.965Z,22.20
2017-09-23T21:19:38.410Z,21.07
2017-09-23T21:22:06.613Z,23.90
2017-09-23T21:24:34.064Z,27.13
2017-09-23T21:27:01.501Z,27.33
2017-09-23T21:29:29.721Z,25.77
2017-09-23T21:31:57.165Z,27.30
2017-09-23T21:34:25.368Z,29.37
2017-09-23T21:36:52.811Z,27.63
2017-09-23T21:39:20.252Z,28.40
2017-09-23T21:41:47.773Z,28.73
2017-09-23T21:44:15.213Z,27.80
2017-09-23T21:46:42.655Z,29.60
2017-09-23T21:49:10.088Z,29.97
2017-09-23T21:51:37.628Z,30.20
2017-09-23T21:54:05.061Z,30.00
2017-09-23T21:56:33.273Z,32.37
2017-09-23T21:59:00.734Z,30.40
2017-09-23T22:01:28.188Z,29.83
2017-09-23T22:03:55.630Z,31.33
2017-09-23T22:06:23.071Z,29.80
2017-09-23T22:08:50.528Z,32.03
2017-09-23T22:11:18.751Z,31.30
2017-09-23T22:13:46.224Z,30.30
2017-09-23T22:16:13.665Z,28.27
2017-09-23T22:18:41.114Z,35.13
2017-09-23T22:21:08.554Z,30.17
2017-09-23T22:23:36.001Z,29.90
2017-09-23T22:26:03.447Z,28.83
2017-09-23T22:28:31.713Z,34.33
2017-09-23T22:30:59.136Z,29.03
2017-09-23T22:33:26.588Z,31.70
2017-09-23T22:35:54.020Z,33.00
2017-09-23T22:38:21.449Z,34.93
2017-09-23T22:40:48.896Z,32.33
2017-09-23T22:43:16.336Z,34.40
2017-09-23T22:45:43.787Z,34.43
2017-09-23T22:48:11.213Z,33.13
2017-09-23T22:50:38.661Z,34.80
2017-09-23T22:53:06.105Z,35.97
2017-09-23T22:55:33.648Z,36.53
2017-09-23T22:58:02.937Z,36.77
2017-09-23T23:00:31.165Z,37.47
2017-09-23T23:02:58.593Z,35.60
2017-09-23T23:05:26.041Z,35.57
2017-09-23T23:07:53.480Z,36.37
2017-09-23T23:10:21.702Z,38.40
2017-09-23T23:12:49.133Z,39.20
2017-09-23T23:15:16.585Z,35.80
2017-09-23T23:17:44.018Z,38.90
2017-09-23T23:20:11.469Z,37.50
2017-09-23T23:22:38.908Z,39.03
2017-09-23T23:25:06.348Z,36.97
2017-09-23T23:27:33.801Z,39.40
2017-09-23T23:30:01.240Z,38.60
2017-09-23T23:32:28.691Z,39.10
2017-09-23T23:34:56.113Z,41.13
2017-09-23T23:37:23.557Z,39.60
2017-09-23T23:39:50.997Z,38.17
2017-09-23T23:42:18.444Z,39.77
2017-09-23T23:44:45.897Z,39.10
2017-09-23T23:47:13.336Z,39.80
2017-09-23T23:49:40.775Z,41.30
2017-09-23T23:52:08.992Z,37.30
2017-09-23T23:54:36.431Z,38.97
2017-09-23T23:57:03.873Z,38.77
2017-09-23T23:59:31.314Z,37.20
